Time;durP1;ratioP1;P1;durP2;ratioP2;P2;SDS_P1;SDS_P2;PMS_P1;PMS_P2;Temp;Humidity;BMP_temperature;BMP_pressure;BME280_temperature;BME280_humidity;BME280_pressure;Samples;Min_cycle;Max_cycle;Signal;HPM_P1;HPM_P2
2023/12/17 00:00:15;;;;;;;65.20;34.00;;;;;;;-143.54;100.00;59916.91;5105595;28;20058;-84
2023/12/17 00:02:40;;;;;;;69.93;33.05;;;;;;;-143.54;100.00;59916.91;5103708;28;20068;-84
2023/12/17 00:05:06;;;;;;;65.45;32.67;;;;;;;-143.54;100.00;59916.91;5106988;28;20035;-84
2023/12/17 00:07:32;;;;;;;71.72;33.45;;;;;;;-143.54;100.00;59916.91;5100685;28;20028;-84
2023/12/17 00:09:57;;;;;;;68.93;33.17;;;;;;;-143.54;100.00;59916.91;5108854;28;20382;-84
2023/12/17 00:12:22;;;;;;;72.38;33.95;;;;;;;-143.54;100.00;59916.91;5098081;28;20039;-83
2023/12/17 00:14:47;;;;;;;69.88;33.97;;;;;;;-143.54;100.00;59916.91;5106485;28;20149;-83
2023/12/17 00:17:13;;;;;;;70.22;32.90;;;;;;;-143.54;100.00;59916.91;5098649;28;20028;-84
2023/12/17 00:19:38;;;;;;;74.35;34.33;;;;;;;-143.54;100.00;59916.91;5098725;28;20047;-84
2023/12/17 00:22:04;;;;;;;69.10;33.85;;;;;;;-143.54;100.00;59916.91;5102354;28;20031;-84
2023/12/17 00:24:29;;;;;;;68.78;33.17;;;;;;;-143.54;100.00;59916.91;5106813;28;20058;-84
2023/12/17 00:26:57;;;;;;;65.93;32.67;;;;;;;-143.54;100.00;59916.91;5097945;28;20133;-84
2023/12/17 00:29:23;;;;;;;67.15;34.05;;;;;;;-143.54;100.00;59916.91;5098681;28;20032;-84
2023/12/17 00:31:48;;;;;;;69.97;33.50;;;;;;;-143.54;100.00;59916.91;5104776;28;20028;-83
2023/12/17 00:34:13;;;;;;;67.50;32.65;;;;;;;-143.54;100.00;59916.91;5099797;28;20512;-84
2023/12/17 00:36:39;;;;;;;65.85;33.80;;;;;;;-143.54;100.00;59916.91;5098940;28;20046;-84
2023/12/17 00:39:04;;;;;;;67.68;33.15;;;;;;;-143.54;100.00;59916.91;5098399;28;20028;-84
2023/12/17 00:41:31;;;;;;;73.78;32.95;;;;;;;-143.54;100.00;59916.91;5098898;28;20052;-84
2023/12/17 00:43:57;;;;;;;76.72;35.97;;;;;;;-143.54;100.00;59916.91;5105333;28;20032;-84
2023/12/17 00:46:22;;;;;;;75.57;34.88;;;;;;;-143.54;100.00;59916.91;5099845;28;20026;-83
2023/12/17 00:48:48;;;;;;;80.53;34.90;;;;;;;-143.54;100.00;59916.91;5097057;28;20089;-84
2023/12/17 00:51:13;;;;;;;80.70;34.60;;;;;;;-143.54;100.00;59916.91;5099800;28;20036;-84
2023/12/17 00:53:38;;;;;;;80.78;34.88;;;;;;;-143.54;100.00;59916.91;5098493;28;20032;-84
2023/12/17 00:56:04;;;;;;;78.55;35.15;;;;;;;-143.54;100.00;59916.91;5097345;28;20487;-84
2023/12/17 00:58:29;;;;;;;76.07;34.28;;;;;;;-143.54;100.00;59916.91;5098110;28;20024;-84
2023/12/17 01:00:55;;;;;;;82.90;36.03;;;;;;;-143.54;100.00;59916.91;5102201;28;20074;-84
2023/12/17 01:03:20;;;;;;;77.90;34.42;;;;;;;-143.54;100.00;59916.91;5094326;28;20033;-84
2023/12/17 01:05:45;;;;;;;79.35;34.08;;;;;;;-143.54;100.00;59916.91;5095359;28;20027;-84
2023/12/17 01:08:11;;;;;;;75.93;33.05;;;;;;;-143.54;100.00;59916.91;5094419;28;20519;-84
2023/12/17 01:10:36;;;;;;;79.45;33.60;;;;;;;-143.54;100.00;59916.91;5095088;28;20063;-84
2023/12/17 01:13:01;;;;;;;79.90;34.65;;;;;;;-143.54;100.00;59916.91;5094828;28;20107;-84
2023/12/17 01:15:27;;;;;;;78.90;33.72;;;;;;;-143.54;100.00;59916.91;5094303;28;20028;-84
2023/12/17 01:17:52;;;;;;;83.18;35.45;;;;;;;-143.54;100.00;59916.91;5097127;28;20027;-83
2023/12/17 01:20:18;;;;;;;80.28;33.50;;;;;;;-143.54;100.00;59916.91;5095051;28;20467;-83
2023/12/17 01:22:43;;;;;;;79.40;32.67;;;;;;;-143.54;100.00;59916.91;5097971;28;20024;-83
2023/12/17 01:25:08;;;;;;;75.45;32.65;;;;;;;-143.54;100.00;59916.91;5106470;28;20035;-83
2023/12/17 01:27:34;;;;;;;77.45;31.75;;;;;;;-143.54;100.00;59916.91;5095558;28;20107;-83
2023/12/17 01:29:59;;;;;;;78.40;32.90;;;;;;;-143.54;100.00;59916.91;5093874;28;20040;-84
2023/12/17 01:32:24;;;;;;;68.65;29.83;;;;;;;-143.54;100.00;59916.91;5089097;28;20111;-84
2023/12/17 01:34:50;;;;;;;70.95;29.60;;;;;;;-143.54;100.00;59916.91;5091742;28;20035;-83
2023/12/17 01:37:15;;;;;;;67.20;28.98;;;;;;;-143.54;100.00;59916.91;5094125;28;20034;-84
2023/12/17 01:39:40;;;;;;;65.85;28.70;;;;;;;-143.54;100.00;59916.91;5094909;28;20433;-83
2023/12/17 01:42:06;;;;;;;68.22;29.52;;;;;;;-143.54;100.00;59916.91;5094469;28;20037;-83
2023/12/17 01:44:31;;;;;;;64.60;28.25;;;;;;;-143.54;100.00;59916.91;5098200;28;20020;-83
2023/12/17 01:46:57;;;;;;;61.72;28.73;;;;;;;-143.54;100.00;59916.91;5093980;28;20020;-84
2023/12/17 01:49:23;;;;;;;71.82;30.48;;;;;;;-143.54;100.00;59916.91;5097682;28;20047;-84
2023/12/17 01:51:49;;;;;;;68.75;27.40;;;;;;;-143.54;100.00;59916.91;5093156;28;20024;-83
2023/12/17 01:54:15;;;;;;;62.13;27.48;;;;;;;-143.54;100.00;59916.91;5100691;28;20032;-83
2023/12/17 01:56:41;;;;;;;59.53;26.60;;;;;;;-143.54;100.00;59916.91;5093979;28;20038;-84
2023/12/17 01:59:08;;;;;;;64.15;27.77;;;;;;;-143.54;100.00;59916.91;5108490;28;20050;-83
2023/12/17 02:01:34;;;;;;;62.28;27.45;;;;;;;-143.54;100.00;59916.91;5093390;28;20467;-83
2023/12/17 02:03:59;;;;;;;60.63;27.30;;;;;;;-143.54;100.00;59916.91;5096079;28;20020;-83
2023/12/17 02:06:24;;;;;;;60.33;26.83;;;;;;;-143.54;100.00;59916.91;5089585;28;20036;-84
2023/12/17 02:08:50;;;;;;;57.90;26.02;;;;;;;-143.54;100.00;59916.91;5097122;28;20035;-84
2023/12/17 02:11:15;;;;;;;59.28;27.80;;;;;;;-143.54;100.00;59916.91;5100584;28;20096;-84
2023/12/17 02:13:40;;;;;;;58.00;26.17;;;;;;;-143.54;100.00;59916.91;5094785;28;20123;-84
2023/12/17 02:16:06;;;;;;;61.45;26.35;;;;;;;-143.54;100.00;59916.91;5098611;28;20039;-83
2023/12/17 02:18:31;;;;;;;61.25;26.80;;;;;;;-143.54;100.00;59916.91;5093466;28;20024;-83
2023/12/17 02:20:57;;;;;;;61.78;25.80;;;;;;;-143.54;100.00;59916.91;5096973;28;20098;-83
2023/12/17 02:23:23;;;;;;;58.92;26.50;;;;;;;-143.54;100.00;59916.91;5105013;28;20470;-83
2023/12/17 02:25:48;;;;;;;65.43;26.35;;;;;;;-143.54;100.00;59916.91;5095379;28;20032;-84
2023/12/17 02:28:14;;;;;;;59.33;26.00;;;;;;;-143.54;100.00;59916.91;5098105;28;20028;-84
2023/12/17 02:30:39;;;;;;;59.88;26.25;;;;;;;-143.54;100.00;59916.91;5102855;28;20115;-83
2023/12/17 02:33:04;;;;;;;62.45;26.52;;;;;;;-143.54;100.00;59916.91;5092229;28;20032;-84
2023/12/17 02:35:29;;;;;;;64.85;26.02;;;;;;;-143.54;100.00;59916.91;5093852;28;20033;-84
2023/12/17 02:37:55;;;;;;;63.00;26.55;;;;;;;-143.54;100.00;59916.91;5096099;28;20067;-83
2023/12/17 02:40:20;;;;;;;61.88;25.45;;;;;;;-143.54;100.00;59916.91;5092909;28;20445;-83
2023/12/17 02:42:45;;;;;;;54.85;23.77;;;;;;;-143.54;100.00;59916.91;5094709;28;20105;-84
2023/12/17 02:45:13;;;;;;;53.78;24.35;;;;;;;-143.54;100.00;59916.91;5097560;28;20016;-83
2023/12/17 02:47:39;;;;;;;52.92;23.33;;;;;;;-143.54;100.00;59916.91;5092965;28;20024;-84
2023/12/17 02:50:05;;;;;;;57.67;24.75;;;;;;;-143.54;100.00;59916.91;5101136;28;20092;-84
2023/12/17 02:52:30;;;;;;;53.67;23.88;;;;;;;-143.54;100.00;59916.91;5098531;28;20110;-84
2023/12/17 02:54:55;;;;;;;55.22;23.80;;;;;;;-143.54;100.00;59916.91;5100690;28;20487;-84
2023/12/17 02:57:25;;;;;;;52.35;22.77;;;;;;;-143.54;100.00;59916.91;5100991;28;20035;-84
2023/12/17 02:59:52;;;;;;;52.15;22.20;;;;;;;-143.54;100.00;59916.91;5107398;28;20024;-84
2023/12/17 03:02:17;;;;;;;52.40;21.85;;;;;;;-143.54;100.00;59916.91;5093881;28;20020;-84
2023/12/17 03:04:42;;;;;;;47.67;23.02;;;;;;;-143.54;100.00;59916.91;5100853;28;20399;-83
2023/12/17 03:07:08;;;;;;;50.72;22.92;;;;;;;-143.54;100.00;59916.91;5099779;28;20474;-83
2023/12/17 03:09:33;;;;;;;46.60;21.70;;;;;;;-143.54;100.00;59916.91;5098549;28;20038;-83
2023/12/17 03:11:58;;;;;;;47.90;21.77;;;;;;;-143.54;100.00;59916.91;5099754;28;20022;-83
2023/12/17 03:14:24;;;;;;;47.22;21.10;;;;;;;-143.54;100.00;59916.91;5098897;28;20028;-84
2023/12/17 03:16:49;;;;;;;46.90;21.13;;;;;;;-143.54;100.00;59916.91;5099284;28;20034;-84
2023/12/17 03:19:15;;;;;;;42.63;19.60;;;;;;;-143.54;100.00;59916.91;5105301;28;20440;-83
2023/12/17 03:21:40;;;;;;;40.53;19.65;;;;;;;-143.54;100.00;59916.91;5096054;28;20024;-83
2023/12/17 03:24:05;;;;;;;43.17;20.52;;;;;;;-143.54;100.00;59916.91;5092343;28;20299;-83
2023/12/17 03:26:31;;;;;;;39.38;19.05;;;;;;;-143.54;100.00;59916.91;5093016;28;20414;-83
2023/12/17 03:28:57;;;;;;;43.53;20.33;;;;;;;-143.54;100.00;59916.91;5100091;28;20024;-83
2023/12/17 03:31:22;;;;;;;40.17;19.48;;;;;;;-143.54;100.00;59916.91;5093692;28;20031;-83
2023/12/17 03:33:47;;;;;;;41.65;19.95;;;;;;;-143.54;100.00;59916.91;5098216;28;20104;-83
2023/12/17 03:36:16;;;;;;;40.17;19.05;;;;;;;-143.54;100.00;59916.91;5097939;28;20020;-83
2023/12/17 03:38:44;;;;;;;42.35;19.52;;;;;;;-143.54;100.00;59916.91;5100622;28;20031;-83
2023/12/17 03:41:27;;;;;;;39.45;18.80;;;;;;;-143.54;100.00;59916.91;5103781;28;20096;-83
2023/12/17 03:43:55;;;;;;;36.88;17.75;;;;;;;-143.54;100.00;59916.91;5101724;28;20031;-83
2023/12/17 03:46:25;;;;;;;41.17;17.85;;;;;;;-143.54;100.00;59916.91;5105713;28;20054;-83
2023/12/17 03:48:52;;;;;;;32.83;16.67;;;;;;;-143.54;100.00;59916.91;5099696;28;20032;-83
2023/12/17 03:51:17;;;;;;;31.40;16.45;;;;;;;-143.54;100.00;59916.91;5091882;28;20035;-83
2023/12/17 03:53:43;;;;;;;32.58;18.02;;;;;;;-143.54;100.00;59916.91;5095703;28;20032;-84
2023/12/17 03:56:10;;;;;;;31.10;16.52;;;;;;;-143.54;100.00;59916.91;5101963;28;20110;-83
2023/12/17 03:58:39;;;;;;;32.80;16.48;;;;;;;-143.54;100.00;59916.91;5096911;28;20490;-83
2023/12/17 04:01:06;;;;;;;36.33;17.30;;;;;;;-143.54;100.00;59916.91;5100132;28;20040;-83
2023/12/17 04:03:32;;;;;;;34.60;17.50;;;;;;;-143.54;100.00;59916.91;5096321;28;20052;-83
2023/12/17 04:05:59;;;;;;;35.92;17.65;;;;;;;-143.54;100.00;59916.91;5095595;28;20054;-83
2023/12/17 04:08:25;;;;;;;33.95;17.20;;;;;;;-143.54;100.00;59916.91;5086398;28;20032;-83
2023/12/17 04:10:50;;;;;;;36.10;17.38;;;;;;;-143.54;100.00;59916.91;5094390;28;20047;-83
2023/12/17 04:13:16;;;;;;;37.28;17.05;;;;;;;-143.54;100.00;59916.91;5099148;28;20115;-83
2023/12/17 04:15:41;;;;;;;34.88;16.50;;;;;;;-143.54;100.00;59916.91;5101344;28;20042;-83
2023/12/17 04:18:06;;;;;;;33.53;16.10;;;;;;;-143.54;100.00;59916.91;5095859;28;20024;-83
2023/12/17 04:20:31;;;;;;;35.58;16.08;;;;;;;-143.54;100.00;59916.91;5094663;28;20042;-83
2023/12/17 04:22:57;;;;;;;38.53;17.17;;;;;;;-143.54;100.00;59916.91;5098330;28;20099;-83
2023/12/17 04:25:22;;;;;;;34.28;15.98;;;;;;;-143.54;100.00;59916.91;5093968;28;20036;-83
2023/12/17 04:27:47;;;;;;;36.13;15.75;;;;;;;-143.54;100.00;59916.91;5099543;28;20050;-83
2023/12/17 04:30:12;;;;;;;39.25;17.88;;;;;;;-143.54;100.00;59916.91;5102450;28;20570;-83
2023/12/17 04:32:38;;;;;;;34.08;16.92;;;;;;;-143.54;100.00;59916.91;5100521;28;20038;-83
2023/12/17 04:35:04;;;;;;;33.60;16.48;;;;;;;-143.54;100.00;59916.91;5101546;28;20016;-83
2023/12/17 04:37:29;;;;;;;37.72;17.15;;;;;;;-143.54;100.00;59916.91;5092624;28;20028;-83
2023/12/17 04:39:55;;;;;;;33.72;16.42;;;;;;;-143.54;100.00;59916.91;5100829;28;20107;-83
2023/12/17 04:42:20;;;;;;;41.00;17.75;;;;;;;-143.54;100.00;59916.91;5103138;28;20038;-83
2023/12/17 04:44:45;;;;;;;32.95;16.25;;;;;;;-143.54;100.00;59916.91;5107946;28;20027;-83
2023/12/17 04:47:11;;;;;;;37.58;16.45;;;;;;;-143.54;100.00;59916.91;5100541;28;20028;-84
2023/12/17 04:49:37;;;;;;;35.70;17.63;;;;;;;-143.54;100.00;59916.91;5105526;28;20032;-83
2023/12/17 04:52:03;;;;;;;34.63;17.15;;;;;;;-143.54;100.00;59916.91;5106251;28;20040;-84
2023/12/17 04:54:28;;;;;;;36.45;17.60;;;;;;;-143.54;100.00;59916.91;5097494;28;20169;-83
2023/12/17 04:56:55;;;;;;;35.15;17.35;;;;;;;-143.54;100.00;59916.91;5103627;28;20016;-84
2023/12/17 04:59:21;;;;;;;37.70;17.33;;;;;;;-143.54;100.00;59916.91;5100329;28;20096;-84
2023/12/17 05:01:46;;;;;;;37.20;18.23;;;;;;;-143.54;100.00;59916.91;5103756;28;20027;-83
2023/12/17 05:04:11;;;;;;;42.70;18.45;;;;;;;-143.54;100.00;59916.91;5098670;28;20487;-83
2023/12/17 05:06:37;;;;;;;39.25;17.48;;;;;;;-143.54;100.00;59916.91;5107340;28;20103;-83
2023/12/17 05:09:02;;;;;;;39.65;17.45;;;;;;;-143.54;100.00;59916.91;5102693;28;20027;-83
2023/12/17 05:11:27;;;;;;;35.97;17.40;;;;;;;-143.54;100.00;59916.91;5106030;28;20024;-84
2023/12/17 05:13:52;;;;;;;38.42;17.60;;;;;;;-143.54;100.00;59916.91;5097070;28;20070;-83
2023/12/17 05:16:18;;;;;;;38.75;17.92;;;;;;;-143.54;100.00;59916.91;5104425;28;20016;-83
2023/12/17 05:18:44;;;;;;;33.42;17.15;;;;;;;-143.54;100.00;59916.91;5106445;28;20027;-83
2023/12/17 05:21:09;;;;;;;40.00;17.52;;;;;;;-143.54;100.00;59916.91;5097810;28;20020;-83
2023/12/17 05:23:34;;;;;;;36.60;17.17;;;;;;;-143.54;100.00;59916.91;5106911;28;20489;-83
2023/12/17 05:25:59;;;;;;;40.08;18.75;;;;;;;-143.54;100.00;59916.91;5103776;28;20115;-83
2023/12/17 05:28:25;;;;;;;35.53;17.88;;;;;;;-143.54;100.00;59916.91;5103323;28;20135;-83
2023/12/17 05:30:50;;;;;;;38.33;18.60;;;;;;;-143.54;100.00;59916.91;5103586;28;20028;-83
2023/12/17 05:33:15;;;;;;;37.45;18.90;;;;;;;-143.54;100.00;59916.91;5099255;28;20032;-83
2023/12/17 05:35:42;;;;;;;40.30;18.33;;;;;;;-143.54;100.00;59916.91;5093959;28;20024;-82
2023/12/17 05:38:07;;;;;;;44.22;19.20;;;;;;;-143.54;100.00;59916.91;5102789;28;20016;-83
2023/12/17 05:40:32;;;;;;;39.50;19.02;;;;;;;-143.54;100.00;59916.91;5096946;28;20027;-83
2023/12/17 05:42:58;;;;;;;36.85;18.77;;;;;;;-143.54;100.00;59916.91;5097759;28;20046;-83
2023/12/17 05:45:23;;;;;;;36.75;18.23;;;;;;;-143.54;100.00;59916.91;5095864;28;20028;-83
2023/12/17 05:47:48;;;;;;;37.13;18.42;;;;;;;-143.54;100.00;59916.91;5094985;28;20077;-83
2023/12/17 05:50:14;;;;;;;36.72;17.75;;;;;;;-143.54;100.00;59916.91;5100894;28;20530;-83
2023/12/17 05:52:40;;;;;;;33.42;16.77;;;;;;;-143.54;100.00;59916.91;5107039;28;20022;-83
2023/12/17 05:55:07;;;;;;;34.28;17.25;;;;;;;-143.54;100.00;59916.91;5098039;28;20043;-83
2023/12/17 05:57:33;;;;;;;33.20;17.13;;;;;;;-143.54;100.00;59916.91;5100004;28;20061;-83
2023/12/17 05:59:58;;;;;;;33.60;16.60;;;;;;;-143.54;100.00;59916.91;5096531;28;20012;-83
2023/12/17 06:02:24;;;;;;;35.90;16.33;;;;;;;-143.54;100.00;59916.91;5102928;28;20028;-83
2023/12/17 06:04:49;;;;;;;32.42;16.10;;;;;;;-143.54;100.00;59916.91;5100665;28;20023;-84
2023/12/17 06:07:14;;;;;;;30.73;15.73;;;;;;;-143.54;100.00;59916.91;5105582;28;20365;-83
2023/12/17 06:09:40;;;;;;;30.55;15.57;;;;;;;-143.54;100.00;59916.91;5103611;28;20040;-83
2023/12/17 06:12:06;;;;;;;29.95;14.82;;;;;;;-143.54;100.00;59916.91;5104648;28;20062;-83
2023/12/17 06:14:31;;;;;;;26.50;14.10;;;;;;;-143.54;100.00;59916.91;5097021;28;20459;-84
2023/12/17 06:16:56;;;;;;;28.08;14.50;;;;;;;-143.54;100.00;59916.91;5105065;28;20028;-84
2023/12/17 06:19:22;;;;;;;27.45;13.85;;;;;;;-143.54;100.00;59916.91;5101421;28;20051;-83
2023/12/17 06:21:47;;;;;;;24.65;13.68;;;;;;;-143.54;100.00;59916.91;5103444;28;20034;-83
2023/12/17 06:24:13;;;;;;;27.17;13.32;;;;;;;-143.54;100.00;59916.91;5096850;28;20044;-83
2023/12/17 06:26:38;;;;;;;24.70;13.38;;;;;;;-143.54;100.00;59916.91;5105037;28;20463;-83
2023/12/17 06:29:04;;;;;;;28.70;13.82;;;;;;;-143.54;100.00;59916.91;5100989;28;20443;-83
2023/12/17 06:31:30;;;;;;;29.80;14.15;;;;;;;-143.54;100.00;59916.91;5105502;28;20479;-83
2023/12/17 06:33:55;;;;;;;28.23;13.38;;;;;;;-143.54;100.00;59916.91;5102088;28;20067;-83
2023/12/17 06:36:21;;;;;;;31.15;14.32;;;;;;;-143.54;100.00;59916.91;5097661;28;20031;-83
2023/12/17 06:38:47;;;;;;;30.10;15.98;;;;;;;-143.54;100.00;59916.91;5105760;28;20106;-83
2023/12/17 06:41:13;;;;;;;32.38;17.02;;;;;;;-143.54;100.00;59916.91;5098441;28;20024;-83
2023/12/17 06:43:42;;;;;;;32.97;16.35;;;;;;;-143.54;100.00;59916.91;5100129;28;20374;-83
2023/12/17 06:46:07;;;;;;;35.65;17.00;;;;;;;-143.54;100.00;59916.91;5100643;28;20031;-83
2023/12/17 06:48:34;;;;;;;35.58;16.77;;;;;;;-143.54;100.00;59916.91;5099561;28;20024;-84
2023/12/17 06:51:03;;;;;;;33.38;17.20;;;;;;;-143.54;100.00;59916.91;5095195;28;20028;-83
2023/12/17 06:53:29;;;;;;;38.90;17.17;;;;;;;-143.54;100.00;59916.91;5102497;28;20019;-83
2023/12/17 06:55:54;;;;;;;34.05;16.83;;;;;;;-143.54;100.00;59916.91;5099217;28;20503;-83
2023/12/17 06:58:20;;;;;;;35.65;17.27;;;;;;;-143.54;100.00;59916.91;5098011;28;20043;-83
2023/12/17 07:00:45;;;;;;;33.35;17.10;;;;;;;-143.54;100.00;59916.91;5095490;28;20483;-83
2023/12/17 07:03:12;;;;;;;34.28;16.17;;;;;;;-143.54;100.00;59916.91;5096604;28;20548;-83
2023/12/17 07:05:38;;;;;;;34.35;16.40;;;;;;;-143.54;100.00;59916.91;5099470;28;20472;-83
2023/12/17 07:08:04;;;;;;;34.42;15.73;;;;;;;-143.54;100.00;59916.91;5103814;28;20011;-83
2023/12/17 07:10:29;;;;;;;31.15;15.48;;;;;;;-143.54;100.00;59916.91;5095671;28;20491;-83
2023/12/17 07:12:54;;;;;;;29.02;15.13;;;;;;;-143.54;100.00;59916.91;5101429;28;20024;-83
2023/12/17 07:15:19;;;;;;;29.85;15.18;;;;;;;-143.54;100.00;59916.91;5096584;28;20043;-83
2023/12/17 07:17:45;;;;;;;27.95;14.48;;;;;;;-143.54;100.00;59916.91;5100853;28;20412;-83
2023/12/17 07:20:10;;;;;;;26.48;14.32;;;;;;;-143.54;100.00;59916.91;5094465;28;20028;-83
2023/12/17 07:22:36;;;;;;;26.20;13.45;;;;;;;-143.54;100.00;59916.91;5087714;28;20031;-83
2023/12/17 07:25:02;;;;;;;27.52;13.23;;;;;;;-143.54;100.00;59916.91;5099967;28;20020;-83
2023/12/17 07:27:27;;;;;;;26.08;14.55;;;;;;;-143.54;100.00;59916.91;5095823;28;20023;-83
2023/12/17 07:29:52;;;;;;;26.95;14.27;;;;;;;-143.54;100.00;59916.91;5097670;28;20505;-83
2023/12/17 07:32:18;;;;;;;26.00;13.80;;;;;;;-143.54;100.00;59916.91;5099243;28;20032;-84
2023/12/17 07:34:43;;;;;;;26.67;14.27;;;;;;;-143.54;100.00;59916.91;5094356;28;20032;-83
2023/12/17 07:37:08;;;;;;;30.73;15.05;;;;;;;-143.54;100.00;59916.91;5108635;28;20081;-84
2023/12/17 07:39:34;;;;;;;28.67;13.60;;;;;;;-143.54;100.00;59916.91;5098850;28;20499;-83
2023/12/17 07:41:59;;;;;;;28.52;13.77;;;;;;;-143.54;100.00;59916.91;5107778;28;20028;-83
2023/12/17 07:44:27;;;;;;;30.02;14.07;;;;;;;-143.54;100.00;59916.91;5096921;28;20027;-83
2023/12/17 07:46:52;;;;;;;26.23;12.70;;;;;;;-143.54;100.00;59916.91;5099634;28;20024;-83
2023/12/17 07:49:17;;;;;;;26.10;13.50;;;;;;;-143.54;100.00;59916.91;5099186;28;20023;-84
2023/12/17 07:51:44;;;;;;;23.85;12.50;;;;;;;-143.54;100.00;59916.91;5100932;28;20039;-84
2023/12/17 07:54:09;;;;;;;24.83;13.02;;;;;;;-143.54;100.00;59916.91;5099050;28;20053;-84
2023/12/17 07:56:35;;;;;;;22.05;12.02;;;;;;;-143.54;100.00;59916.91;5095163;28;20024;-83
2023/12/17 07:59:00;;;;;;;23.40;12.35;;;;;;;-143.54;100.00;59916.91;5099488;28;20051;-84
2023/12/17 08:01:29;;;;;;;22.63;12.00;;;;;;;-143.54;100.00;59916.91;5101564;28;20076;-84
2023/12/17 08:03:55;;;;;;;20.48;11.18;;;;;;;-143.54;100.00;59916.91;5093482;28;20032;-84
2023/12/17 08:06:20;;;;;;;19.77;10.63;;;;;;;-143.54;100.00;59916.91;5088299;28;20039;-84
2023/12/17 08:08:46;;;;;;;18.15;10.48;;;;;;;-143.54;100.00;59916.91;5103891;28;20047;-84
2023/12/17 08:11:12;;;;;;;16.30;9.82;;;;;;;-143.54;100.00;59916.91;5094046;28;20024;-85
2023/12/17 08:13:37;;;;;;;19.75;10.85;;;;;;;-143.54;100.00;59916.91;5100807;28;20020;-84
2023/12/17 08:16:03;;;;;;;20.50;10.52;;;;;;;-143.54;100.00;59916.91;5104721;28;20460;-84
2023/12/17 08:18:28;;;;;;;19.55;10.75;;;;;;;-143.54;100.00;59916.91;5102829;28;20055;-84
2023/12/17 08:20:54;;;;;;;21.27;11.20;;;;;;;-143.54;100.00;59916.91;5109364;28;20031;-84
2023/12/17 08:23:19;;;;;;;20.80;11.45;;;;;;;-143.54;100.00;59916.91;5106843;28;20028;-84
2023/12/17 08:25:44;;;;;;;19.48;10.80;;;;;;;-143.54;100.00;59916.91;5096781;28;20030;-84
2023/12/17 08:28:10;;;;;;;21.88;11.63;;;;;;;-143.54;100.00;59916.91;5101603;28;20036;-84
2023/12/17 08:30:38;;;;;;;21.02;11.63;;;;;;;-143.54;100.00;59916.91;5101233;28;20039;-84
2023/12/17 08:33:03;;;;;;;19.98;10.90;;;;;;;-143.54;100.00;59916.91;5099421;28;20028;-84
2023/12/17 08:35:31;;;;;;;21.48;11.63;;;;;;;-143.54;100.00;59916.91;5102540;28;20093;-84
2023/12/17 08:38:03;;;;;;;19.52;11.02;;;;;;;-143.54;100.00;59916.91;5096639;28;20032;-84
2023/12/17 08:40:28;;;;;;;22.63;11.43;;;;;;;-143.54;100.00;59916.91;5102666;28;20043;-85
2023/12/17 08:42:53;;;;;;;19.23;11.15;;;;;;;-143.54;100.00;59916.91;5101940;28;20752;-84
2023/12/17 08:45:19;;;;;;;18.48;11.15;;;;;;;-143.54;100.00;59916.91;5096633;28;20028;-86
2023/12/17 08:47:44;;;;;;;20.75;12.13;;;;;;;-143.54;100.00;59916.91;5098234;28;20099;-85
2023/12/17 08:50:09;;;;;;;19.30;10.90;;;;;;;-143.54;100.00;59916.91;5096118;28;20028;-85
2023/12/17 08:52:36;;;;;;;20.30;10.93;;;;;;;-143.54;100.00;59916.91;5105419;28;20053;-86
2023/12/17 08:55:02;;;;;;;19.00;10.63;;;;;;;-143.54;100.00;59916.91;5096269;28;20047;-87
2023/12/17 08:57:27;;;;;;;21.55;11.43;;;;;;;-143.54;100.00;59916.91;5099925;28;20360;-85
2023/12/17 08:59:52;;;;;;;25.05;13.35;;;;;;;-143.54;100.00;59916.91;5101661;28;20019;-85
2023/12/17 09:02:18;;;;;;;23.27;12.20;;;;;;;-143.54;100.00;59916.91;5103480;28;20039;-85
2023/12/17 09:04:43;;;;;;;22.95;12.25;;;;;;;-143.54;100.00;59916.91;5097489;28;20085;-85
2023/12/17 09:07:08;;;;;;;23.48;13.32;;;;;;;-143.54;100.00;59916.91;5101595;28;20027;-84
2023/12/17 09:09:34;;;;;;;23.67;12.07;;;;;;;-143.54;100.00;59916.91;5097092;28;20036;-84
2023/12/17 09:11:59;;;;;;;26.25;14.15;;;;;;;-143.54;100.00;59916.91;5105418;28;20039;-85
2023/12/17 09:14:24;;;;;;;25.27;13.88;;;;;;;-143.54;100.00;59916.91;5096620;28;20405;-86
2023/12/17 09:16:49;;;;;;;26.63;13.10;;;;;;;-143.54;100.00;59916.91;5101771;28;20039;-85
2023/12/17 09:19:15;;;;;;;26.08;13.52;;;;;;;-143.54;100.00;59916.91;5094284;28;20040;-85
2023/12/17 09:21:40;;;;;;;23.67;13.40;;;;;;;-143.54;100.00;59916.91;5095969;28;20047;-84
2023/12/17 09:24:06;;;;;;;25.88;13.20;;;;;;;-143.54;100.00;59916.91;5099999;28;20032;-85
2023/12/17 09:26:31;;;;;;;23.40;13.85;;;;;;;-143.54;100.00;59916.91;5099940;28;20600;-83
2023/12/17 09:28:56;;;;;;;24.25;13.48;;;;;;;-143.54;100.00;59916.91;5099972;28;20028;-81
2023/12/17 09:31:21;;;;;;;26.83;13.50;;;;;;;-143.54;100.00;59916.91;5102150;28;20472;-84
2023/12/17 09:33:47;;;;;;;28.02;14.48;;;;;;;-143.54;100.00;59916.91;5101839;28;20108;-84
2023/12/17 09:36:12;;;;;;;28.30;14.35;;;;;;;-143.54;100.00;59916.91;5093953;28;20361;-84
2023/12/17 09:38:37;;;;;;;24.70;13.60;;;;;;;-143.54;100.00;59916.91;5105147;28;20032;-84
2023/12/17 09:41:06;;;;;;;29.33;13.88;;;;;;;-143.54;100.00;59916.91;5092539;28;20099;-84
2023/12/17 09:43:31;;;;;;;24.63;13.85;;;;;;;-143.54;100.00;59916.91;5097741;28;20042;-84
2023/12/17 09:45:57;;;;;;;26.70;14.40;;;;;;;-143.54;100.00;59916.91;5098552;28;20028;-85
2023/12/17 09:48:23;;;;;;;26.88;13.82;;;;;;;-143.54;100.00;59916.91;5100047;28;20059;-84
2023/12/17 09:50:48;;;;;;;26.85;14.65;;;;;;;-143.54;100.00;59916.91;5097500;28;20032;-85
2023/12/17 09:53:14;;;;;;;28.55;15.30;;;;;;;-143.54;100.00;59916.91;5106132;28;20443;-84
2023/12/17 09:55:39;;;;;;;25.63;13.50;;;;;;;-143.54;100.00;59916.91;5094815;28;20167;-85
2023/12/17 09:58:05;;;;;;;26.90;15.10;;;;;;;-143.54;100.00;59916.91;5099132;28;20015;-84
2023/12/17 10:00:31;;;;;;;25.98;15.05;;;;;;;-143.54;100.00;59916.91;5093790;28;20456;-85
2023/12/17 10:03:08;;;;;;;27.13;14.07;;;;;;;-143.54;100.00;59916.91;5093847;28;20047;-86
2023/12/17 10:05:34;;;;;;;30.05;15.52;;;;;;;-143.54;100.00;59916.91;5099399;28;20043;-85
2023/12/17 10:08:00;;;;;;;29.90;15.82;;;;;;;-143.54;100.00;59916.91;5092484;28;20024;-85
2023/12/17 10:10:26;;;;;;;30.33;15.50;;;;;;;-143.54;100.00;59916.91;5093270;28;20039;-85
2023/12/17 10:12:52;;;;;;;31.55;15.20;;;;;;;-143.54;100.00;59916.91;5098988;28;20395;-85
2023/12/17 10:15:19;;;;;;;35.88;16.33;;;;;;;-143.54;100.00;59916.91;5103473;28;20514;-85
2023/12/17 10:17:44;;;;;;;31.40;16.42;;;;;;;-143.54;100.00;59916.91;5095418;28;20024;-85
2023/12/17 10:20:10;;;;;;;32.10;16.98;;;;;;;-143.54;100.00;59916.91;5097551;28;20069;-84
2023/12/17 10:22:35;;;;;;;31.50;16.77;;;;;;;-143.54;100.00;59916.91;5101433;28;20103;-85
2023/12/17 10:25:00;;;;;;;33.55;17.27;;;;;;;-143.54;100.00;59916.91;5100872;28;20387;-87
2023/12/17 10:27:27;;;;;;;34.95;17.20;;;;;;;-143.54;100.00;59916.91;5109283;28;20064;-88
2023/12/17 10:29:53;;;;;;;35.65;17.33;;;;;;;-143.54;100.00;59916.91;5099947;28;20028;-90
2023/12/17 10:32:23;;;;;;;40.22;19.58;;;;;;;-143.54;100.00;59916.91;5098120;28;20480;-83
2023/12/17 10:34:50;;;;;;;39.88;18.95;;;;;;;-143.54;100.00;59916.91;5092774;28;20019;-80
2023/12/17 10:37:19;;;;;;;36.50;18.70;;;;;;;-143.54;100.00;59916.91;5102157;28;20054;-80
2023/12/17 10:39:50;;;;;;;37.92;17.92;;;;;;;-143.54;100.00;59916.91;5092738;28;20039;-82
2023/12/17 10:42:19;;;;;;;35.63;19.02;;;;;;;-143.54;100.00;59916.91;5098856;28;20024;-80
2023/12/17 10:44:49;;;;;;;41.33;20.30;;;;;;;-143.54;100.00;59916.91;5093386;28;20028;-82
2023/12/17 10:47:24;;;;;;;37.70;19.10;;;;;;;-143.54;100.00;59916.91;5101173;28;20034;-81